sensor_id;sensor_type;location;lat;lon;timestamp;temperature;humidity
2899;DHT22;1459;50.864;6.438;2022-11-20T00:01:24;5.30;99.90
2899;DHT22;1459;50.864;6.438;2022-11-20T00:03:52;5.30;99.90
2899;DHT22;1459;50.864;6.438;2022-11-20T00:06:22;5.30;99.90
2899;DHT22;1459;50.864;6.438;2022-11-20T00:08:49;5.30;99.90
2899;DHT22;1459;50.864;6.438;2022-11-20T00:11:19;5.30;99.90
2899;DHT22;1459;50.864;6.438;2022-11-20T00:13:48;5.30;99.90
2899;DHT22;1459;50.864;6.438;2022-11-20T00:16:18;5.40;99.90
2899;DHT22;1459;50.864;6.438;2022-11-20T00:18:45;5.40;99.90
2899;DHT22;1459;50.864;6.438;2022-11-20T00:21:13;5.40;99.90
2899;DHT22;1459;50.864;6.438;2022-11-20T00:23:42;5.50;99.90
2899;DHT22;1459;50.864;6.438;2022-11-20T00:26:11;5.50;99.90
2899;DHT22;1459;50.864;6.438;2022-11-20T00:28:39;5.50;99.90
2899;DHT22;1459;50.864;6.438;2022-11-20T00:31:08;5.50;99.90
2899;DHT22;1459;50.864;6.438;2022-11-20T00:33:35;5.50;99.90
2899;DHT22;1459;50.864;6.438;2022-11-20T00:36:03;5.50;99.90
2899;DHT22;1459;50.864;6.438;2022-11-20T00:38:30;5.50;99.90
2899;DHT22;1459;50.864;6.438;2022-11-20T00:41:00;5.50;99.90
2899;DHT22;1459;50.864;6.438;2022-11-20T00:43:27;5.50;99.90
2899;DHT22;1459;50.864;6.438;2022-11-20T00:45:58;5.40;99.90
2899;DHT22;1459;50.864;6.438;2022-11-20T00:48:25;5.50;99.90
2899;DHT22;1459;50.864;6.438;2022-11-20T00:50:53;5.40;99.90
2899;DHT22;1459;50.864;6.438;2022-11-20T00:53:20;5.40;99.90
2899;DHT22;1459;50.864;6.438;2022-11-20T00:55:53;5.40;99.90
2899;DHT22;1459;50.864;6.438;2022-11-20T00:58:22;5.40;99.90
2899;DHT22;1459;50.864;6.438;2022-11-20T01:00:50;5.40;99.90
2899;DHT22;1459;50.864;6.438;2022-11-20T01:03:17;5.40;99.90
2899;DHT22;1459;50.864;6.438;2022-11-20T01:05:44;5.40;99.90
2899;DHT22;1459;50.864;6.438;2022-11-20T01:08:11;5.40;99.90
2899;DHT22;1459;50.864;6.438;2022-11-20T01:10:38;5.40;99.90
2899;DHT22;1459;50.864;6.438;2022-11-20T01:13:05;5.40;99.90
2899;DHT22;1459;50.864;6.438;2022-11-20T01:15:51;5.40;99.90
2899;DHT22;1459;50.864;6.438;2022-11-20T01:18:18;5.40;99.90
2899;DHT22;1459;50.864;6.438;2022-11-20T01:20:45;5.40;99.90
2899;DHT22;1459;50.864;6.438;2022-11-20T01:23:12;5.30;99.90
2899;DHT22;1459;50.864;6.438;2022-11-20T01:25:39;5.30;99.90
2899;DHT22;1459;50.864;6.438;2022-11-20T01:28:06;5.30;99.90
2899;DHT22;1459;50.864;6.438;2022-11-20T01:30:33;5.40;99.90
2899;DHT22;1459;50.864;6.438;2022-11-20T01:33:01;5.40;99.90
2899;DHT22;1459;50.864;6.438;2022-11-20T01:35:28;5.40;99.90
2899;DHT22;1459;50.864;6.438;2022-11-20T01:37:55;5.40;99.90
2899;DHT22;1459;50.864;6.438;2022-11-20T01:40:22;5.40;99.90
2899;DHT22;1459;50.864;6.438;2022-11-20T01:43:06;5.40;99.90
2899;DHT22;1459;50.864;6.438;2022-11-20T01:46:01;5.40;99.90
2899;DHT22;1459;50.864;6.438;2022-11-20T01:48:34;5.40;99.90
2899;DHT22;1459;50.864;6.438;2022-11-20T01:51:02;5.40;99.90
2899;DHT22;1459;50.864;6.438;2022-11-20T01:53:33;5.40;99.90
2899;DHT22;1459;50.864;6.438;2022-11-20T01:56:03;5.40;99.90
2899;DHT22;1459;50.864;6.438;2022-11-20T01:58:34;5.40;99.90
2899;DHT22;1459;50.864;6.438;2022-11-20T02:01:03;5.40;99.90
2899;DHT22;1459;50.864;6.438;2022-11-20T02:03:32;5.40;99.90
2899;DHT22;1459;50.864;6.438;2022-11-20T02:06:05;5.30;99.90
2899;DHT22;1459;50.864;6.438;2022-11-20T02:08:36;5.30;99.90
2899;DHT22;1459;50.864;6.438;2022-11-20T02:11:04;5.30;99.90
2899;DHT22;1459;50.864;6.438;2022-11-20T02:13:31;5.30;99.90
2899;DHT22;1459;50.864;6.438;2022-11-20T02:16:13;5.20;99.90
2899;DHT22;1459;50.864;6.438;2022-11-20T02:18:43;5.20;99.90
2899;DHT22;1459;50.864;6.438;2022-11-20T02:21:18;5.20;99.90
2899;DHT22;1459;50.864;6.438;2022-11-20T02:24:05;5.10;99.90
2899;DHT22;1459;50.864;6.438;2022-11-20T02:26:36;5.20;99.90
2899;DHT22;1459;50.864;6.438;2022-11-20T02:29:05;5.20;99.90
2899;DHT22;1459;50.864;6.438;2022-11-20T02:31:40;5.20;99.90
2899;DHT22;1459;50.864;6.438;2022-11-20T02:34:08;5.20;99.90
2899;DHT22;1459;50.864;6.438;2022-11-20T02:36:37;5.20;99.90
2899;DHT22;1459;50.864;6.438;2022-11-20T02:39:07;5.20;99.90
2899;DHT22;1459;50.864;6.438;2022-11-20T02:41:35;5.30;99.90
2899;DHT22;1459;50.864;6.438;2022-11-20T02:44:03;5.30;99.90
2899;DHT22;1459;50.864;6.438;2022-11-20T02:46:31;5.30;99.90
2899;DHT22;1459;50.864;6.438;2022-11-20T02:49:00;5.30;99.90
2899;DHT22;1459;50.864;6.438;2022-11-20T02:51:27;5.30;99.90
2899;DHT22;1459;50.864;6.438;2022-11-20T02:53:54;5.30;99.90
2899;DHT22;1459;50.864;6.438;2022-11-20T02:56:22;5.30;99.90
2899;DHT22;1459;50.864;6.438;2022-11-20T02:58:49;5.30;99.90
2899;DHT22;1459;50.864;6.438;2022-11-20T03:01:16;5.40;99.90
2899;DHT22;1459;50.864;6.438;2022-11-20T03:03:43;5.40;99.90
2899;DHT22;1459;50.864;6.438;2022-11-20T03:06:10;5.40;99.90
2899;DHT22;1459;50.864;6.438;2022-11-20T03:08:37;5.40;99.90
2899;DHT22;1459;50.864;6.438;2022-11-20T03:11:06;5.40;99.90
2899;DHT22;1459;50.864;6.438;2022-11-20T03:13:34;5.40;99.90
2899;DHT22;1459;50.864;6.438;2022-11-20T03:16:06;5.50;99.90
2899;DHT22;1459;50.864;6.438;2022-11-20T03:18:34;5.40;99.90
2899;DHT22;1459;50.864;6.438;2022-11-20T03:21:00;5.40;99.90
2899;DHT22;1459;50.864;6.438;2022-11-20T03:23:29;5.40;99.90
2899;DHT22;1459;50.864;6.438;2022-11-20T03:26:06;5.30;99.90
2899;DHT22;1459;50.864;6.438;2022-11-20T03:28:35;5.30;99.90
2899;DHT22;1459;50.864;6.438;2022-11-20T03:31:06;5.30;99.90
2899;DHT22;1459;50.864;6.438;2022-11-20T03:33:32;5.30;99.90
2899;DHT22;1459;50.864;6.438;2022-11-20T03:36:01;5.20;99.90
2899;DHT22;1459;50.864;6.438;2022-11-20T03:38:29;5.20;99.90
2899;DHT22;1459;50.864;6.438;2022-11-20T03:40:59;5.20;99.90
2899;DHT22;1459;50.864;6.438;2022-11-20T03:43:26;5.20;99.90
2899;DHT22;1459;50.864;6.438;2022-11-20T03:45:54;5.10;99.90
2899;DHT22;1459;50.864;6.438;2022-11-20T03:48:22;5.10;99.90
2899;DHT22;1459;50.864;6.438;2022-11-20T03:50:49;5.10;99.90
2899;DHT22;1459;50.864;6.438;2022-11-20T03:53:16;5.10;99.90
2899;DHT22;1459;50.864;6.438;2022-11-20T03:55:50;5.10;99.90
2899;DHT22;1459;50.864;6.438;2022-11-20T03:58:17;5.10;99.90
2899;DHT22;1459;50.864;6.438;2022-11-20T04:00:44;5.10;99.90
2899;DHT22;1459;50.864;6.438;2022-11-20T04:03:12;5.10;99.90
2899;DHT22;1459;50.864;6.438;2022-11-20T04:05:39;5.10;99.90
2899;DHT22;1459;50.864;6.438;2022-11-20T04:08:06;5.10;99.90
2899;DHT22;1459;50.864;6.438;2022-11-20T04:10:33;5.10;99.90
2899;DHT22;1459;50.864;6.438;2022-11-20T04:13:00;5.10;99.90
2899;DHT22;1459;50.864;6.438;2022-11-20T04:15:27;5.20;99.90
2899;DHT22;1459;50.864;6.438;2022-11-20T04:17:54;5.20;99.90
2899;DHT22;1459;50.864;6.438;2022-11-20T04:20:23;5.20;99.90
2899;DHT22;1459;50.864;6.438;2022-11-20T04:22:53;5.10;99.90
2899;DHT22;1459;50.864;6.438;2022-11-20T04:25:21;5.10;99.90
2899;DHT22;1459;50.864;6.438;2022-11-20T04:27:48;5.10;99.90
2899;DHT22;1459;50.864;6.438;2022-11-20T04:30:15;5.10;99.90
2899;DHT22;1459;50.864;6.438;2022-11-20T04:32:42;5.10;99.90
2899;DHT22;1459;50.864;6.438;2022-11-20T04:35:08;5.10;99.90
2899;DHT22;1459;50.864;6.438;2022-11-20T04:37:37;5.10;99.90
2899;DHT22;1459;50.864;6.438;2022-11-20T04:40:05;5.10;99.90
2899;DHT22;1459;50.864;6.438;2022-11-20T04:42:32;5.10;99.90
2899;DHT22;1459;50.864;6.438;2022-11-20T04:44:59;5.10;99.90
2899;DHT22;1459;50.864;6.438;2022-11-20T04:47:26;5.10;99.90
2899;DHT22;1459;50.864;6.438;2022-11-20T04:49:53;5.00;99.90
2899;DHT22;1459;50.864;6.438;2022-11-20T04:52:20;5.00;99.90
2899;DHT22;1459;50.864;6.438;2022-11-20T04:54:48;5.10;99.90
2899;DHT22;1459;50.864;6.438;2022-11-20T04:57:18;5.00;99.90
2899;DHT22;1459;50.864;6.438;2022-11-20T04:59:45;5.00;99.90
2899;DHT22;1459;50.864;6.438;2022-11-20T05:02:12;5.10;99.90
2899;DHT22;1459;50.864;6.438;2022-11-20T05:04:39;5.10;99.90
2899;DHT22;1459;50.864;6.438;2022-11-20T05:07:06;5.10;99.90
2899;DHT22;1459;50.864;6.438;2022-11-20T05:09:33;5.10;99.90
2899;DHT22;1459;50.864;6.438;2022-11-20T05:12:02;5.10;99.90
2899;DHT22;1459;50.864;6.438;2022-11-20T05:14:29;5.10;99.90
2899;DHT22;1459;50.864;6.438;2022-11-20T05:16:56;5.10;99.90
2899;DHT22;1459;50.864;6.438;2022-11-20T05:19:23;5.10;99.90
2899;DHT22;1459;50.864;6.438;2022-11-20T05:21:50;5.10;99.90
2899;DHT22;1459;50.864;6.438;2022-11-20T05:24:17;5.20;99.90
2899;DHT22;1459;50.864;6.438;2022-11-20T05:26:44;5.20;99.90
2899;DHT22;1459;50.864;6.438;2022-11-20T05:29:12;5.10;99.90
2899;DHT22;1459;50.864;6.438;2022-11-20T05:31:41;5.20;99.90
2899;DHT22;1459;50.864;6.438;2022-11-20T05:34:08;5.20;99.90
2899;DHT22;1459;50.864;6.438;2022-11-20T05:36:35;5.20;99.90
2899;DHT22;1459;50.864;6.438;2022-11-20T05:39:02;5.20;99.90
2899;DHT22;1459;50.864;6.438;2022-11-20T05:41:29;5.20;99.90
2899;DHT22;1459;50.864;6.438;2022-11-20T05:43:56;5.20;99.90
2899;DHT22;1459;50.864;6.438;2022-11-20T05:46:26;5.20;99.90
2899;DHT22;1459;50.864;6.438;2022-11-20T05:48:53;5.20;99.90
2899;DHT22;1459;50.864;6.438;2022-11-20T05:51:20;5.20;99.90
2899;DHT22;1459;50.864;6.438;2022-11-20T05:53:47;5.20;99.90
2899;DHT22;1459;50.864;6.438;2022-11-20T05:56:16;5.20;99.90
2899;DHT22;1459;50.864;6.438;2022-11-20T05:58:44;5.20;99.90
2899;DHT22;1459;50.864;6.438;2022-11-20T06:01:13;5.30;99.90
2899;DHT22;1459;50.864;6.438;2022-11-20T06:03:42;5.30;99.90
2899;DHT22;1459;50.864;6.438;2022-11-20T06:06:11;5.30;99.90
2899;DHT22;1459;50.864;6.438;2022-11-20T06:08:38;5.30;99.90
2899;DHT22;1459;50.864;6.438;2022-11-20T06:11:06;5.30;99.90
2899;DHT22;1459;50.864;6.438;2022-11-20T06:13:33;5.30;99.90
2899;DHT22;1459;50.864;6.438;2022-11-20T06:16:01;5.40;99.90
2899;DHT22;1459;50.864;6.438;2022-11-20T06:18:29;5.30;99.90
2899;DHT22;1459;50.864;6.438;2022-11-20T06:21:02;5.40;99.90
2899;DHT22;1459;50.864;6.438;2022-11-20T06:23:30;5.30;99.90
2899;DHT22;1459;50.864;6.438;2022-11-20T06:25:58;5.30;99.90
2899;DHT22;1459;50.864;6.438;2022-11-20T06:28:26;5.30;99.90
2899;DHT22;1459;50.864;6.438;2022-11-20T06:30:53;5.20;99.90
2899;DHT22;1459;50.864;6.438;2022-11-20T06:33:20;5.20;99.90
2899;DHT22;1459;50.864;6.438;2022-11-20T06:35:47;5.20;99.90
2899;DHT22;1459;50.864;6.438;2022-11-20T06:38:15;5.10;99.90
2899;DHT22;1459;50.864;6.438;2022-11-20T06:40:43;5.10;99.90
2899;DHT22;1459;50.864;6.438;2022-11-20T06:43:10;5.10;99.90
2899;DHT22;1459;50.864;6.438;2022-11-20T06:45:37;5.10;99.90
2899;DHT22;1459;50.864;6.438;2022-11-20T06:48:04;5.00;99.90
2899;DHT22;1459;50.864;6.438;2022-11-20T06:50:31;5.00;99.90
2899;DHT22;1459;50.864;6.438;2022-11-20T06:53:00;5.00;99.90
2899;DHT22;1459;50.864;6.438;2022-11-20T06:55:29;5.00;99.90
2899;DHT22;1459;50.864;6.438;2022-11-20T06:57:57;4.90;99.90
2899;DHT22;1459;50.864;6.438;2022-11-20T07:00:24;4.90;99.90
2899;DHT22;1459;50.864;6.438;2022-11-20T07:02:51;4.90;99.90
2899;DHT22;1459;50.864;6.438;2022-11-20T07:05:18;4.90;99.90
2899;DHT22;1459;50.864;6.438;2022-11-20T07:07:45;5.00;99.90
2899;DHT22;1459;50.864;6.438;2022-11-20T07:10:12;5.00;99.90
2899;DHT22;1459;50.864;6.438;2022-11-20T07:12:40;4.90;99.90
2899;DHT22;1459;50.864;6.438;2022-11-20T07:15:08;5.00;99.90
2899;DHT22;1459;50.864;6.438;2022-11-20T07:17:35;5.00;99.90
2899;DHT22;1459;50.864;6.438;2022-11-20T07:20:02;5.00;99.90
2899;DHT22;1459;50.864;6.438;2022-11-20T07:22:29;5.00;99.90
2899;DHT22;1459;50.864;6.438;2022-11-20T07:24:56;5.00;99.90
2899;DHT22;1459;50.864;6.438;2022-11-20T07:27:23;5.10;99.90
2899;DHT22;1459;50.864;6.438;2022-11-20T07:29:51;5.10;99.90
2899;DHT22;1459;50.864;6.438;2022-11-20T07:32:18;5.20;99.90
2899;DHT22;1459;50.864;6.438;2022-11-20T07:34:45;5.20;99.90
2899;DHT22;1459;50.864;6.438;2022-11-20T07:37:12;5.20;99.90
2899;DHT22;1459;50.864;6.438;2022-11-20T07:39:39;5.20;99.90
2899;DHT22;1459;50.864;6.438;2022-11-20T07:42:06;5.20;99.90
2899;DHT22;1459;50.864;6.438;2022-11-20T07:44:34;5.20;99.90
2899;DHT22;1459;50.864;6.438;2022-11-20T07:47:02;5.20;99.90
2899;DHT22;1459;50.864;6.438;2022-11-20T07:49:29;5.30;99.90
2899;DHT22;1459;50.864;6.438;2022-11-20T07:51:56;5.30;99.90
2899;DHT22;1459;50.864;6.438;2022-11-20T07:54:23;5.30;99.90
2899;DHT22;1459;50.864;6.438;2022-11-20T07:56:50;5.40;99.90
2899;DHT22;1459;50.864;6.438;2022-11-20T07:59:17;5.40;99.90
2899;DHT22;1459;50.864;6.438;2022-11-20T08:01:44;5.40;99.90
2899;DHT22;1459;50.864;6.438;2022-11-20T08:04:13;5.50;99.90
2899;DHT22;1459;50.864;6.438;2022-11-20T08:06:41;5.50;99.90
2899;DHT22;1459;50.864;6.438;2022-11-20T08:09:08;5.50;99.90
2899;DHT22;1459;50.864;6.438;2022-11-20T08:11:36;5.50;99.90
2899;DHT22;1459;50.864;6.438;2022-11-20T08:14:20;5.50;99.90
2899;DHT22;1459;50.864;6.438;2022-11-20T08:16:48;5.60;99.90
2899;DHT22;1459;50.864;6.438;2022-11-20T08:19:18;5.60;99.90
2899;DHT22;1459;50.864;6.438;2022-11-20T08:21:46;5.70;99.90
2899;DHT22;1459;50.864;6.438;2022-11-20T08:24:14;5.70;99.90
2899;DHT22;1459;50.864;6.438;2022-11-20T08:26:41;5.70;99.90
2899;DHT22;1459;50.864;6.438;2022-11-20T08:29:08;5.70;99.90
2899;DHT22;1459;50.864;6.438;2022-11-20T08:31:35;5.70;99.90
2899;DHT22;1459;50.864;6.438;2022-11-20T08:34:02;5.80;99.90
2899;DHT22;1459;50.864;6.438;2022-11-20T08:36:32;5.80;99.90
2899;DHT22;1459;50.864;6.438;2022-11-20T08:38:59;5.80;99.90
2899;DHT22;1459;50.864;6.438;2022-11-20T08:41:27;5.90;99.90
2899;DHT22;1459;50.864;6.438;2022-11-20T08:43:56;6.00;99.90
2899;DHT22;1459;50.864;6.438;2022-11-20T08:46:24;6.00;99.90
2899;DHT22;1459;50.864;6.438;2022-11-20T08:48:51;6.00;99.90
2899;DHT22;1459;50.864;6.438;2022-11-20T08:51:20;6.10;99.90
2899;DHT22;1459;50.864;6.438;2022-11-20T08:53:48;6.10;99.90
2899;DHT22;1459;50.864;6.438;2022-11-20T08:56:15;6.20;99.90
2899;DHT22;1459;50.864;6.438;2022-11-20T08:58:43;6.20;99.90
2899;DHT22;1459;50.864;6.438;2022-11-20T09:01:10;6.30;99.90
2899;DHT22;1459;50.864;6.438;2022-11-20T09:03:37;6.30;99.90
2899;DHT22;1459;50.864;6.438;2022-11-20T09:06:06;6.40;99.90
2899;DHT22;1459;50.864;6.438;2022-11-20T09:08:34;6.40;99.90
2899;DHT22;1459;50.864;6.438;2022-11-20T09:11:03;6.50;99.90
2899;DHT22;1459;50.864;6.438;2022-11-20T09:13:31;6.50;99.90
2899;DHT22;1459;50.864;6.438;2022-11-20T09:15:59;6.60;99.90
2899;DHT22;1459;50.864;6.438;2022-11-20T09:18:27;6.60;99.90
2899;DHT22;1459;50.864;6.438;2022-11-20T09:20:56;6.70;99.90
2899;DHT22;1459;50.864;6.438;2022-11-20T09:23:24;6.80;99.90
2899;DHT22;1459;50.864;6.438;2022-11-20T09:25:51;6.90;99.90
2899;DHT22;1459;50.864;6.438;2022-11-20T09:28:22;7.00;99.90
2899;DHT22;1459;50.864;6.438;2022-11-20T09:30:49;7.20;99.90
2899;DHT22;1459;50.864;6.438;2022-11-20T09:33:16;7.20;99.90
2899;DHT22;1459;50.864;6.438;2022-11-20T09:35:43;7.20;99.90
2899;DHT22;1459;50.864;6.438;2022-11-20T09:38:10;7.20;99.90
2899;DHT22;1459;50.864;6.438;2022-11-20T09:40:40;7.10;99.90
2899;DHT22;1459;50.864;6.438;2022-11-20T09:43:14;7.10;99.90
2899;DHT22;1459;50.864;6.438;2022-11-20T09:45:53;7.10;99.90
2899;DHT22;1459;50.864;6.438;2022-11-20T09:48:39;7.20;99.90
2899;DHT22;1459;50.864;6.438;2022-11-20T09:51:16;7.20;99.90
2899;DHT22;1459;50.864;6.438;2022-11-20T09:54:00;7.30;99.90
2899;DHT22;1459;50.864;6.438;2022-11-20T09:56:30;7.30;99.90
2899;DHT22;1459;50.864;6.438;2022-11-20T09:59:03;7.20;99.90
2899;DHT22;1459;50.864;6.438;2022-11-20T10:01:35;7.20;99.90
2899;DHT22;1459;50.864;6.438;2022-11-20T10:04:06;7.30;99.90
2899;DHT22;1459;50.864;6.438;2022-11-20T10:06:41;7.20;99.90
2899;DHT22;1459;50.864;6.438;2022-11-20T10:09:19;7.30;99.90
2899;DHT22;1459;50.864;6.438;2022-11-20T10:11:55;7.20;99.90
2899;DHT22;1459;50.864;6.438;2022-11-20T10:14:34;7.20;99.90
2899;DHT22;1459;50.864;6.438;2022-11-20T10:17:16;7.20;99.90
2899;DHT22;1459;50.864;6.438;2022-11-20T10:19:56;7.20;99.90
2899;DHT22;1459;50.864;6.438;2022-11-20T10:22:35;7.20;99.90
2899;DHT22;1459;50.864;6.438;2022-11-20T10:25:14;7.10;99.90
2899;DHT22;1459;50.864;6.438;2022-11-20T10:30:36;7.20;99.90
2899;DHT22;1459;50.864;6.438;2022-11-20T10:33:13;7.10;99.90
2899;DHT22;1459;50.864;6.438;2022-11-20T10:35:45;7.10;99.90
2899;DHT22;1459;50.864;6.438;2022-11-20T10:38:17;7.10;99.90
2899;DHT22;1459;50.864;6.438;2022-11-20T10:40:47;7.20;99.90
2899;DHT22;1459;50.864;6.438;2022-11-20T10:43:18;7.20;99.90
2899;DHT22;1459;50.864;6.438;2022-11-20T10:45:53;7.20;99.90
2899;DHT22;1459;50.864;6.438;2022-11-20T10:48:26;7.20;99.90
2899;DHT22;1459;50.864;6.438;2022-11-20T10:51:27;7.30;99.90
2899;DHT22;1459;50.864;6.438;2022-11-20T10:54:04;7.30;99.90
2899;DHT22;1459;50.864;6.438;2022-11-20T10:56:38;7.40;99.90
2899;DHT22;1459;50.864;6.438;2022-11-20T10:59:26;7.40;99.90
2899;DHT22;1459;50.864;6.438;2022-11-20T11:01:54;7.40;99.90
2899;DHT22;1459;50.864;6.438;2022-11-20T11:04:32;7.40;99.90
2899;DHT22;1459;50.864;6.438;2022-11-20T11:07:11;7.40;99.90
2899;DHT22;1459;50.864;6.438;2022-11-20T11:09:42;7.40;99.90
2899;DHT22;1459;50.864;6.438;2022-11-20T11:12:10;7.50;99.90
2899;DHT22;1459;50.864;6.438;2022-11-20T11:14:46;7.40;99.90
2899;DHT22;1459;50.864;6.438;2022-11-20T11:17:27;7.40;99.90
2899;DHT22;1459;50.864;6.438;2022-11-20T11:20:06;7.40;99.90
2899;DHT22;1459;50.864;6.438;2022-11-20T11:22:35;7.40;99.90
2899;DHT22;1459;50.864;6.438;2022-11-20T11:25:26;7.40;99.90
2899;DHT22;1459;50.864;6.438;2022-11-20T11:27:55;7.40;99.90
2899;DHT22;1459;50.864;6.438;2022-11-20T11:30:23;7.50;99.90
2899;DHT22;1459;50.864;6.438;2022-11-20T11:33:01;7.50;99.90
2899;DHT22;1459;50.864;6.438;2022-11-20T11:35:30;7.50;99.90
2899;DHT22;1459;50.864;6.438;2022-11-20T11:38:04;7.60;99.90
2899;DHT22;1459;50.864;6.438;2022-11-20T11:40:34;7.60;99.90
2899;DHT22;1459;50.864;6.438;2022-11-20T11:43:04;7.70;99.90
2899;DHT22;1459;50.864;6.438;2022-11-20T11:45:53;7.80;99.90
2899;DHT22;1459;50.864;6.438;2022-11-20T11:48:20;7.90;99.90
2899;DHT22;1459;50.864;6.438;2022-11-20T11:50:50;8.00;99.90
2899;DHT22;1459;50.864;6.438;2022-11-20T11:53:21;8.10;99.90
2899;DHT22;1459;50.864;6.438;2022-11-20T11:55:55;8.20;99.90
2899;DHT22;1459;50.864;6.438;2022-11-20T11:58:34;8.20;99.90
2899;DHT22;1459;50.864;6.438;2022-11-20T12:01:14;8.30;99.90
2899;DHT22;1459;50.864;6.438;2022-11-20T12:03:52;8.30;99.90
2899;DHT22;1459;50.864;6.438;2022-11-20T12:06:25;8.40;99.90
2899;DHT22;1459;50.864;6.438;2022-11-20T12:08:59;8.40;99.90
2899;DHT22;1459;50.864;6.438;2022-11-20T12:11:32;8.40;99.90
2899;DHT22;1459;50.864;6.438;2022-11-20T12:14:04;8.40;99.90
2899;DHT22;1459;50.864;6.438;2022-11-20T12:16:37;8.50;99.90
2899;DHT22;1459;50.864;6.438;2022-11-20T12:19:10;8.50;99.90
2899;DHT22;1459;50.864;6.438;2022-11-20T12:21:47;8.50;99.90
2899;DHT22;1459;50.864;6.438;2022-11-20T12:24:33;8.50;99.90
2899;DHT22;1459;50.864;6.438;2022-11-20T12:27:14;8.50;99.90
2899;DHT22;1459;50.864;6.438;2022-11-20T12:29:51;8.50;99.90
2899;DHT22;1459;50.864;6.438;2022-11-20T12:32:44;8.50;99.90
2899;DHT22;1459;50.864;6.438;2022-11-20T12:35:28;8.60;99.90
2899;DHT22;1459;50.864;6.438;2022-11-20T12:38:07;8.60;99.90
2899;DHT22;1459;50.864;6.438;2022-11-20T12:40:44;8.60;99.90
2899;DHT22;1459;50.864;6.438;2022-11-20T12:43:19;8.60;99.90
2899;DHT22;1459;50.864;6.438;2022-11-20T12:46:13;8.60;99.90
2899;DHT22;1459;50.864;6.438;2022-11-20T12:49:09;8.60;99.90
2899;DHT22;1459;50.864;6.438;2022-11-20T12:52:13;8.60;99.90
2899;DHT22;1459;50.864;6.438;2022-11-20T12:54:55;8.60;99.90
2899;DHT22;1459;50.864;6.438;2022-11-20T12:57:29;8.60;99.90
2899;DHT22;1459;50.864;6.438;2022-11-20T13:00:10;8.50;99.90
2899;DHT22;1459;50.864;6.438;2022-11-20T13:06:01;8.40;99.90
2899;DHT22;1459;50.864;6.438;2022-11-20T13:08:33;8.40;99.90
2899;DHT22;1459;50.864;6.438;2022-11-20T13:11:09;8.40;99.90
2899;DHT22;1459;50.864;6.438;2022-11-20T13:13:45;8.40;99.90
2899;DHT22;1459;50.864;6.438;2022-11-20T13:16:22;8.40;99.90
2899;DHT22;1459;50.864;6.438;2022-11-20T13:18:50;8.50;99.90
2899;DHT22;1459;50.864;6.438;2022-11-20T13:21:19;8.50;99.90
2899;DHT22;1459;50.864;6.438;2022-11-20T13:23:47;8.50;99.90
2899;DHT22;1459;50.864;6.438;2022-11-20T13:26:18;8.60;99.90
2899;DHT22;1459;50.864;6.438;2022-11-20T13:28:47;8.50;99.90
2899;DHT22;1459;50.864;6.438;2022-11-20T13:31:39;8.50;99.90
2899;DHT22;1459;50.864;6.438;2022-11-20T13:34:12;8.50;99.90
2899;DHT22;1459;50.864;6.438;2022-11-20T13:36:49;8.50;99.90
2899;DHT22;1459;50.864;6.438;2022-11-20T13:39:24;8.50;99.90
2899;DHT22;1459;50.864;6.438;2022-11-20T13:41:56;8.50;99.90
2899;DHT22;1459;50.864;6.438;2022-11-20T13:44:27;8.50;99.90
2899;DHT22;1459;50.864;6.438;2022-11-20T13:46:55;8.40;99.90
2899;DHT22;1459;50.864;6.438;2022-11-20T13:49:26;8.40;99.90
2899;DHT22;1459;50.864;6.438;2022-11-20T13:55:04;8.30;99.90
2899;DHT22;1459;50.864;6.438;2022-11-20T13:57:55;8.30;99.90
2899;DHT22;1459;50.864;6.438;2022-11-20T14:00:25;8.30;99.90
2899;DHT22;1459;50.864;6.438;2022-11-20T14:03:01;8.20;99.90
2899;DHT22;1459;50.864;6.438;2022-11-20T14:05:32;8.20;99.90
2899;DHT22;1459;50.864;6.438;2022-11-20T14:08:03;8.10;99.90
2899;DHT22;1459;50.864;6.438;2022-11-20T14:10:30;8.10;99.90
2899;DHT22;1459;50.864;6.438;2022-11-20T14:13:10;8.10;99.90
2899;DHT22;1459;50.864;6.438;2022-11-20T14:15:37;8.00;99.90
2899;DHT22;1459;50.864;6.438;2022-11-20T14:18:13;8.00;99.90
2899;DHT22;1459;50.864;6.438;2022-11-20T14:20:41;7.90;99.90
2899;DHT22;1459;50.864;6.438;2022-11-20T14:23:09;7.90;99.90
2899;DHT22;1459;50.864;6.438;2022-11-20T14:25:37;7.90;99.90
2899;DHT22;1459;50.864;6.438;2022-11-20T14:28:21;8.00;99.90
2899;DHT22;1459;50.864;6.438;2022-11-20T14:30:50;8.00;99.90
2899;DHT22;1459;50.864;6.438;2022-11-20T14:33:17;8.00;99.90
2899;DHT22;1459;50.864;6.438;2022-11-20T14:35:46;8.00;99.90
2899;DHT22;1459;50.864;6.438;2022-11-20T14:38:16;8.00;99.90
2899;DHT22;1459;50.864;6.438;2022-11-20T14:40:43;8.00;99.90
2899;DHT22;1459;50.864;6.438;2022-11-20T14:43:24;8.00;99.90
2899;DHT22;1459;50.864;6.438;2022-11-20T14:45:59;8.00;99.90
2899;DHT22;1459;50.864;6.438;2022-11-20T14:48:31;8.00;99.90
2899;DHT22;1459;50.864;6.438;2022-11-20T14:51:00;8.00;99.90
2899;DHT22;1459;50.864;6.438;2022-11-20T14:53:27;8.00;99.90
2899;DHT22;1459;50.864;6.438;2022-11-20T14:55:56;8.00;99.90
2899;DHT22;1459;50.864;6.438;2022-11-20T14:58:26;8.00;99.90
2899;DHT22;1459;50.864;6.438;2022-11-20T15:00:55;8.00;99.90
2899;DHT22;1459;50.864;6.438;2022-11-20T15:03:23;8.00;99.90
2899;DHT22;1459;50.864;6.438;2022-11-20T15:05:50;8.00;99.90
2899;DHT22;1459;50.864;6.438;2022-11-20T15:08:18;8.00;99.90
2899;DHT22;1459;50.864;6.438;2022-11-20T15:10:47;8.00;99.90
2899;DHT22;1459;50.864;6.438;2022-11-20T15:13:17;8.00;99.90
2899;DHT22;1459;50.864;6.438;2022-11-20T15:15:50;8.00;99.90
2899;DHT22;1459;50.864;6.438;2022-11-20T15:18:19;8.00;99.90
2899;DHT22;1459;50.864;6.438;2022-11-20T15:20:47;8.00;99.90
2899;DHT22;1459;50.864;6.438;2022-11-20T15:23:16;8.00;99.90
2899;DHT22;1459;50.864;6.438;2022-11-20T15:25:46;8.00;99.90
2899;DHT22;1459;50.864;6.438;2022-11-20T15:28:17;8.00;99.90
2899;DHT22;1459;50.864;6.438;2022-11-20T15:30:45;8.00;99.90
2899;DHT22;1459;50.864;6.438;2022-11-20T15:33:15;8.00;99.90
2899;DHT22;1459;50.864;6.438;2022-11-20T15:35:42;8.00;99.90
2899;DHT22;1459;50.864;6.438;2022-11-20T15:38:09;8.00;99.90
2899;DHT22;1459;50.864;6.438;2022-11-20T15:40:36;8.00;99.90
2899;DHT22;1459;50.864;6.438;2022-11-20T15:43:03;7.90;99.90
2899;DHT22;1459;50.864;6.438;2022-11-20T15:45:36;8.00;99.90
2899;DHT22;1459;50.864;6.438;2022-11-20T15:48:07;7.90;99.90
2899;DHT22;1459;50.864;6.438;2022-11-20T15:50:41;7.90;99.90
2899;DHT22;1459;50.864;6.438;2022-11-20T15:53:10;7.90;99.90
2899;DHT22;1459;50.864;6.438;2022-11-20T15:55:37;7.90;99.90
2899;DHT22;1459;50.864;6.438;2022-11-20T15:58:04;7.90;99.90
2899;DHT22;1459;50.864;6.438;2022-11-20T16:00:33;7.90;99.90
2899;DHT22;1459;50.864;6.438;2022-11-20T16:03:00;7.90;99.90
2899;DHT22;1459;50.864;6.438;2022-11-20T16:05:28;7.90;99.90
2899;DHT22;1459;50.864;6.438;2022-11-20T16:07:57;7.90;99.90
2899;DHT22;1459;50.864;6.438;2022-11-20T16:10:24;7.90;99.90
2899;DHT22;1459;50.864;6.438;2022-11-20T16:12:50;7.90;99.90
2899;DHT22;1459;50.864;6.438;2022-11-20T16:15:35;7.90;99.90
2899;DHT22;1459;50.864;6.438;2022-11-20T16:18:14;7.90;99.90
2899;DHT22;1459;50.864;6.438;2022-11-20T16:20:45;7.90;99.90
2899;DHT22;1459;50.864;6.438;2022-11-20T16:23:14;7.80;99.90
2899;DHT22;1459;50.864;6.438;2022-11-20T16:25:42;7.80;99.90
2899;DHT22;1459;50.864;6.438;2022-11-20T16:28:12;7.80;99.90
2899;DHT22;1459;50.864;6.438;2022-11-20T16:30:40;7.80;99.90
2899;DHT22;1459;50.864;6.438;2022-11-20T16:33:10;7.80;99.90
2899;DHT22;1459;50.864;6.438;2022-11-20T16:35:37;7.80;99.90
2899;DHT22;1459;50.864;6.438;2022-11-20T16:38:04;7.80;99.90
2899;DHT22;1459;50.864;6.438;2022-11-20T16:40:33;7.80;99.90
2899;DHT22;1459;50.864;6.438;2022-11-20T16:43:07;7.80;99.90
2899;DHT22;1459;50.864;6.438;2022-11-20T16:45:36;7.80;99.90
2899;DHT22;1459;50.864;6.438;2022-11-20T16:48:06;7.80;99.90